Time;durP1;ratioP1;P1;durP2;ratioP2;P2;SDS_P1;SDS_P2;PMS_P1;PMS_P2;Temp;Humidity;BMP_temperature;BMP_pressure;BME280_temperature;BME280_humidity;BME280_pressure;Samples;Min_cycle;Max_cycle;Signal;HPM_P1;HPM_P2
2023/09/23 00:01:38;;;;;;;0.40;0.28;;;;;;;12.92;100.00;97606.69;15269319;19;20082;-54
2023/09/23 00:07:04;;;;;;;0.63;0.20;;;;;;;12.86;100.00;97604.78;15271686;19;20053;-50
2023/09/23 00:12:30;;;;;;;0.88;0.30;;;;;;;12.79;100.00;97606.56;15268103;19;20086;-51
2023/09/23 00:17:58;;;;;;;0.35;0.30;;;;;;;12.72;100.00;97601.09;15265906;19;20026;-51
2023/09/23 00:23:30;;;;;;;0.30;0.30;;;;;;;12.67;100.00;97605.44;15269583;19;20512;-50
2023/09/23 00:28:56;;;;;;;0.50;0.30;;;;;;;12.62;100.00;97604.16;15263808;19;20015;-48
2023/09/23 00:34:24;;;;;;;0.98;0.35;;;;;;;12.58;100.00;97604.75;15264346;19;20480;-48
2023/09/23 00:39:49;;;;;;;0.60;0.40;;;;;;;12.52;100.00;97629.81;15270118;19;20706;-52
2023/09/23 00:45:17;;;;;;;0.47;0.20;;;;;;;12.44;100.00;97641.59;15267305;19;20393;-56
2023/09/23 00:50:44;;;;;;;0.20;0.20;;;;;;;12.38;100.00;97653.19;15266029;19;20015;-49
2023/09/23 00:56:10;;;;;;;2.03;0.30;;;;;;;12.33;100.00;97672.66;15266085;19;20021;-48
2023/09/23 01:01:35;;;;;;;0.22;0.22;;;;;;;12.28;100.00;97659.72;15268609;19;20014;-50
2023/09/23 01:07:04;;;;;;;0.32;0.30;;;;;;;12.24;100.00;97669.25;15258648;19;20034;-48
2023/09/23 01:12:30;;;;;;;1.42;0.30;;;;;;;12.17;100.00;97676.44;15266113;19;20022;-55
2023/09/23 01:17:54;;;;;;;0.70;0.30;;;;;;;12.12;100.00;97689.66;15262846;19;20680;-55
2023/09/23 01:23:23;;;;;;;0.40;0.40;;;;;;;12.08;100.00;97680.25;15266669;19;20070;-50
2023/09/23 01:28:49;;;;;;;0.40;0.30;;;;;;;11.97;100.00;97682.38;15260021;19;20014;-53
2023/09/23 01:34:14;;;;;;;1.15;0.30;;;;;;;11.92;100.00;97681.28;15267410;19;20014;-54
2023/09/23 01:39:43;;;;;;;0.55;0.40;;;;;;;11.90;100.00;97686.88;15262033;19;20014;-54
2023/09/23 01:45:10;;;;;;;0.75;0.50;;;;;;;11.85;100.00;97682.03;15267246;19;20362;-52
2023/09/23 01:50:35;;;;;;;0.63;0.40;;;;;;;11.86;100.00;97688.25;15262747;19;20078;-54
2023/09/23 01:56:02;;;;;;;0.50;0.40;;;;;;;11.82;100.00;97689.66;15275948;19;20800;-50
2023/09/23 02:01:27;;;;;;;0.55;0.30;;;;;;;11.78;100.00;97693.75;15269074;19;20100;-51
2023/09/23 02:06:53;;;;;;;1.17;0.50;;;;;;;11.75;100.00;97702.22;15276674;19;20018;-52
2023/09/23 02:12:21;;;;;;;0.57;0.30;;;;;;;11.70;100.00;97706.31;15270804;19;20682;-49
2023/09/23 02:17:47;;;;;;;2.10;0.30;;;;;;;11.66;100.00;97707.72;15274019;19;20031;-54
2023/09/23 02:23:18;;;;;;;0.50;0.32;;;;;;;11.62;100.00;97710.97;15279597;19;20026;-51
2023/09/23 02:28:46;;;;;;;1.85;0.40;;;;;;;11.62;100.00;97722.59;15280203;19;20028;-51
2023/09/23 02:34:10;;;;;;;1.08;0.40;;;;;;;11.61;100.00;97723.63;15269565;19;20010;-52
2023/09/23 02:39:35;;;;;;;0.47;0.40;;;;;;;11.60;100.00;97738.13;15278467;19;20022;-52
2023/09/23 02:45:06;;;;;;;0.85;0.30;;;;;;;11.56;100.00;97742.22;15269052;19;20483;-49
2023/09/23 02:50:32;;;;;;;1.38;0.50;;;;;;;11.52;100.00;97744.47;15275881;19;20022;-48
2023/09/23 02:55:56;;;;;;;0.70;0.40;;;;;;;11.43;100.00;97763.59;15275788;19;20018;-53
2023/09/23 03:01:25;;;;;;;1.35;0.40;;;;;;;11.36;100.00;97779.69;15274905;19;20022;-50
2023/09/23 03:06:50;;;;;;;1.15;0.30;;;;;;;11.34;100.00;97798.75;15260891;19;20021;-50
2023/09/23 03:12:15;;;;;;;1.02;0.40;;;;;;;11.32;100.00;97808.88;15272335;19;20022;-50
2023/09/23 03:17:50;;;;;;;1.52;0.40;;;;;;;11.27;100.00;97808.56;15266288;19;20014;-49
2023/09/23 03:23:15;;;;;;;0.75;0.40;;;;;;;11.28;100.00;97804.84;15274285;19;20093;-49
2023/09/23 03:28:42;;;;;;;0.43;0.40;;;;;;;11.22;100.00;97795.63;15270221;19;20381;-50
2023/09/23 03:34:13;;;;;;;0.65;0.35;;;;;;;11.29;100.00;97795.75;15273606;19;20014;-49
2023/09/23 03:39:40;;;;;;;1.40;0.30;;;;;;;11.45;100.00;97805.53;15263440;19;20239;-52
2023/09/23 03:45:08;;;;;;;0.40;0.30;;;;;;;11.57;100.00;97806.78;15271190;19;20093;-49
2023/09/23 03:50:35;;;;;;;1.13;0.32;;;;;;;11.69;100.00;97815.28;15266024;19;20023;-49
2023/09/23 03:56:03;;;;;;;1.25;0.32;;;;;;;11.76;100.00;97818.06;15270945;19;20528;-55
2023/09/23 04:01:28;;;;;;;1.35;0.30;;;;;;;11.88;100.00;97803.09;15271897;19;20010;-50
2023/09/23 04:06:56;;;;;;;0.57;0.40;;;;;;;11.93;100.00;97807.13;15267667;19;20014;-52
2023/09/23 04:12:21;;;;;;;0.30;0.20;;;;;;;11.98;100.00;97815.53;15261832;19;20490;-50
2023/09/23 04:17:47;;;;;;;0.50;0.30;;;;;;;12.00;100.00;97829.66;15266519;19;20014;-50
2023/09/23 04:23:14;;;;;;;0.32;0.20;;;;;;;12.00;100.00;97822.41;15268284;19;20020;-52
2023/09/23 04:28:39;;;;;;;0.47;0.30;;;;;;;12.05;100.00;97829.13;15271546;19;20021;-54
2023/09/23 04:34:03;;;;;;;0.50;0.30;;;;;;;12.10;100.00;97829.41;15267507;19;20486;-50
2023/09/23 04:39:30;;;;;;;1.00;0.30;;;;;;;12.09;100.00;97838.53;15268920;19;20019;-54
2023/09/23 04:44:57;;;;;;;1.08;0.30;;;;;;;12.16;100.00;97837.59;15262391;19;20022;-51
2023/09/23 04:50:23;;;;;;;0.20;0.20;;;;;;;12.21;100.00;97837.03;15268701;19;20425;-55
2023/09/23 04:55:50;;;;;;;0.95;0.40;;;;;;;12.23;100.00;97835.00;15266916;19;20018;-53
2023/09/23 05:01:15;;;;;;;0.20;0.20;;;;;;;12.24;100.00;97836.66;15268700;19;20415;-53
2023/09/23 05:06:41;;;;;;;0.68;0.25;;;;;;;12.20;100.00;97840.75;15266112;19;20512;-50
2023/09/23 05:12:10;;;;;;;0.20;0.20;;;;;;;12.21;100.00;97855.94;15266481;19;20367;-48
2023/09/23 05:17:34;;;;;;;0.17;0.15;;;;;;;12.25;100.00;97867.19;15257032;19;20022;-51
2023/09/23 05:23:07;;;;;;;0.38;0.30;;;;;;;12.27;100.00;97876.81;15257532;19;20015;-49
2023/09/23 05:28:42;;;;;;;0.43;0.30;;;;;;;12.33;100.00;97880.63;15272968;19;20790;-50
2023/09/23 05:34:07;;;;;;;0.68;0.20;;;;;;;12.31;100.00;97879.97;15277370;19;20015;-53
2023/09/23 05:39:34;;;;;;;0.10;0.10;;;;;;;12.30;100.00;97899.91;15277962;19;20464;-53
2023/09/23 05:45:02;;;;;;;0.20;0.20;;;;;;;12.32;100.00;97920.28;15280492;19;20423;-50
2023/09/23 05:50:26;;;;;;;0.30;0.20;;;;;;;12.35;100.00;97926.34;15273159;19;20345;-50
2023/09/23 05:55:52;;;;;;;0.35;0.20;;;;;;;12.38;100.00;97940.31;15272415;19;20025;-50
2023/09/23 06:01:19;;;;;;;0.55;0.20;;;;;;;12.44;100.00;97965.75;15279329;19;20014;-52
2023/09/23 06:06:45;;;;;;;0.10;0.10;;;;;;;12.44;100.00;97982.81;15276104;19;20011;-53
2023/09/23 06:12:09;;;;;;;0.45;0.30;;;;;;;12.42;100.00;97989.41;15275814;19;20562;-50
2023/09/23 06:17:39;;;;;;;0.73;0.22;;;;;;;12.40;100.00;97996.91;15271695;19;20374;-54
2023/09/23 06:23:05;;;;;;;0.30;0.20;;;;;;;12.33;100.00;98008.41;15268666;19;20133;-53
2023/09/23 06:28:36;;;;;;;0.50;0.20;;;;;;;12.33;100.00;98013.81;15272112;19;20035;-50
2023/09/23 06:34:06;;;;;;;0.20;0.10;;;;;;;12.33;100.00;98021.09;15272145;19;20027;-51
2023/09/23 06:39:31;;;;;;;0.43;0.20;;;;;;;12.37;100.00;98018.88;15273388;19;20021;-51
2023/09/23 06:44:59;;;;;;;0.20;0.20;;;;;;;12.40;100.00;98018.50;15273476;19;20021;-51
2023/09/23 06:50:26;;;;;;;0.20;0.20;;;;;;;12.41;100.00;98012.06;15274614;19;20032;-54
2023/09/23 06:55:51;;;;;;;0.10;0.10;;;;;;;12.38;100.00;98020.53;15272109;19;20081;-52
2023/09/23 07:01:16;;;;;;;0.15;0.10;;;;;;;12.40;100.00;98037.41;15274278;19;20082;-57
2023/09/23 07:06:46;;;;;;;0.25;0.10;;;;;;;12.45;100.00;98052.06;15273628;19;20010;-54
2023/09/23 07:12:12;;;;;;;0.30;0.20;;;;;;;12.55;100.00;98070.69;15252352;19;20015;-55
2023/09/23 07:17:38;;;;;;;0.65;0.20;;;;;;;12.66;100.00;98076.69;15269267;19;20023;-53
2023/09/23 07:23:05;;;;;;;0.47;0.20;;;;;;;12.78;100.00;98076.06;15270037;19;20017;-54
2023/09/23 07:28:37;;;;;;;2.30;0.30;;;;;;;12.94;100.00;98102.09;15266247;19;20014;-52
2023/09/23 07:34:04;;;;;;;0.30;0.30;;;;;;;12.99;100.00;98108.81;15265844;19;20010;-52
2023/09/23 07:39:31;;;;;;;0.22;0.20;;;;;;;13.12;100.00;98113.56;15274797;19;20022;-54
2023/09/23 07:44:56;;;;;;;0.47;0.22;;;;;;;13.25;100.00;98124.59;15271465;19;20029;-52
2023/09/23 07:50:21;;;;;;;0.43;0.20;;;;;;;13.40;100.00;98116.50;15261171;19;20019;-52
2023/09/23 07:55:49;;;;;;;0.20;0.20;;;;;;;13.45;100.00;98110.53;15257606;19;20082;-55
2023/09/23 08:01:13;;;;;;;1.00;0.22;;;;;;;13.67;100.00;98127.69;15271789;19;20018;-55
2023/09/23 08:06:38;;;;;;;1.10;0.40;;;;;;;13.68;100.00;98129.38;15265941;19;20265;-56
2023/09/23 08:12:05;;;;;;;0.45;0.30;;;;;;;13.75;100.00;98130.28;15260448;19;20015;-57
2023/09/23 08:17:31;;;;;;;0.80;0.30;;;;;;;13.90;100.00;98148.38;15238334;19;20414;-55
2023/09/23 08:22:56;;;;;;;0.40;0.30;;;;;;;13.99;100.00;98145.34;15271266;19;20531;-55
2023/09/23 08:28:30;;;;;;;0.63;0.30;;;;;;;14.03;100.00;98133.13;15258754;19;20018;-51
2023/09/23 08:33:55;;;;;;;0.32;0.30;;;;;;;14.25;100.00;98135.03;15267006;19;20499;-54
2023/09/23 08:39:21;;;;;;;0.70;0.28;;;;;;;14.33;100.00;98135.75;15268876;19;20496;-54
2023/09/23 08:44:51;;;;;;;0.50;0.22;;;;;;;14.53;100.00;98148.66;15270666;19;20031;-56
2023/09/23 08:50:17;;;;;;;1.58;0.35;;;;;;;14.64;100.00;98150.84;15264703;19;20033;-55
2023/09/23 08:55:42;;;;;;;1.38;0.40;;;;;;;14.69;100.00;98146.75;15266459;19;20093;-56
2023/09/23 09:01:10;;;;;;;1.15;0.40;;;;;;;14.70;100.00;98168.25;15259701;19;20011;-52
2023/09/23 09:06:35;;;;;;;0.73;0.40;;;;;;;14.77;100.00;98179.97;15281312;19;20735;-55
2023/09/23 09:12:02;;;;;;;0.55;0.38;;;;;;;14.93;100.00;98186.19;15283064;19;20043;-54
2023/09/23 09:17:30;;;;;;;2.42;0.40;;;;;;;14.98;100.00;98191.88;15277957;19;20031;-52
2023/09/23 09:22:54;;;;;;;0.75;0.50;;;;;;;14.84;100.00;98209.88;15277016;19;20086;-55
2023/09/23 09:28:27;;;;;;;0.57;0.40;;;;;;;14.99;100.00;98188.13;15276384;19;20089;-54
2023/09/23 09:33:57;;;;;;;1.17;0.47;;;;;;;15.06;100.00;98196.28;15270425;19;20015;-56
2023/09/23 09:39:28;;;;;;;1.67;0.60;;;;;;;15.18;100.00;98202.88;15279846;19;20712;-49
2023/09/23 09:44:56;;;;;;;1.50;0.40;;;;;;;15.09;100.00;98207.63;15282042;19;20093;-50
2023/09/23 09:50:24;;;;;;;0.68;0.40;;;;;;;15.10;100.00;98217.44;15277702;19;20229;-52
2023/09/23 09:55:49;;;;;;;0.30;0.30;;;;;;;15.14;100.00;98203.47;15273885;19;20023;-50
2023/09/23 10:01:18;;;;;;;1.10;0.50;;;;;;;15.09;100.00;98193.19;15281171;19;20476;-49
2023/09/23 10:06:56;;;;;;;1.10;0.40;;;;;;;15.37;100.00;98204.06;15269294;19;20042;-50
2023/09/23 10:12:25;;;;;;;0.82;0.45;;;;;;;15.50;100.00;98208.75;15276123;19;20053;-49
2023/09/23 10:17:44;;;;;;;1.15;0.40;;;;;;;15.42;100.00;98225.19;15272856;19;20052;-51
2023/09/23 10:23:13;;;;;;;0.60;0.47;;;;;;;15.46;100.00;98214.78;15273804;19;20034;-52
2023/09/23 10:28:39;;;;;;;1.25;0.40;;;;;;;15.63;100.00;98210.72;15274542;19;20026;-53
2023/09/23 10:34:07;;;;;;;2.35;0.50;;;;;;;15.89;100.00;98217.38;15273897;19;20010;-49
2023/09/23 10:39:35;;;;;;;0.60;0.40;;;;;;;15.88;100.00;98217.59;15271374;19;20014;-52
2023/09/23 10:45:01;;;;;;;1.05;0.50;;;;;;;16.11;100.00;98237.13;15274140;19;20015;-49
2023/09/23 10:50:25;;;;;;;0.88;0.50;;;;;;;16.31;100.00;98220.91;15276732;19;20010;-50
2023/09/23 10:55:53;;;;;;;1.60;0.50;;;;;;;16.21;100.00;98215.00;15267656;19;20014;-50
2023/09/23 11:01:18;;;;;;;0.63;0.40;;;;;;;16.30;100.00;98221.94;15274751;19;20025;-51
2023/09/23 11:06:43;;;;;;;0.50;0.40;;;;;;;16.25;100.00;98210.84;15272976;19;20022;-52
2023/09/23 11:12:19;;;;;;;0.93;0.40;;;;;;;16.41;100.00;98220.53;15266990;19;20085;-54
2023/09/23 11:17:46;;;;;;;2.67;0.50;;;;;;;16.40;100.00;98218.84;15262232;19;20038;-56
2023/09/23 11:23:12;;;;;;;0.80;0.40;;;;;;;16.33;100.00;98218.81;15265943;19;20014;-54
2023/09/23 11:28:46;;;;;;;0.70;0.50;;;;;;;16.54;100.00;98235.22;15255105;19;20018;-54
2023/09/23 11:34:11;;;;;;;0.75;0.47;;;;;;;16.89;100.00;98230.47;15270181;19;20627;-51
2023/09/23 11:39:37;;;;;;;0.47;0.32;;;;;;;16.90;100.00;98234.88;15277072;19;20359;-53
2023/09/23 11:45:05;;;;;;;0.82;0.45;;;;;;;17.09;100.00;98243.31;15271160;19;20086;-53
2023/09/23 11:50:29;;;;;;;1.25;0.52;;;;;;;17.09;100.00;98246.84;15270193;19;20035;-55
2023/09/23 11:55:54;;;;;;;0.47;0.30;;;;;;;17.08;100.00;98241.63;15268930;19;20504;-56
2023/09/23 12:01:21;;;;;;;0.77;0.50;;;;;;;17.04;99.76;98253.97;15268397;19;20464;-54
2023/09/23 12:06:46;;;;;;;0.50;0.32;;;;;;;16.97;99.85;98253.13;15270645;19;20026;-55
2023/09/23 12:12:11;;;;;;;0.93;0.40;;;;;;;16.84;100.00;98257.47;15271802;19;20034;-51
2023/09/23 12:17:40;;;;;;;0.70;0.40;;;;;;;16.91;100.00;98268.38;15263296;19;20017;-54
2023/09/23 12:23:05;;;;;;;1.63;0.43;;;;;;;16.80;100.00;98272.53;15272709;19;20658;-56
2023/09/23 12:28:36;;;;;;;0.70;0.40;;;;;;;16.85;100.00;98269.19;15270673;19;20029;-54
2023/09/23 12:34:04;;;;;;;1.42;0.50;;;;;;;16.96;100.00;98279.50;15266152;19;20042;-55
2023/09/23 12:39:28;;;;;;;5.53;0.75;;;;;;;17.34;100.00;98280.81;15269341;19;20033;-54
2023/09/23 12:44:53;;;;;;;0.75;0.40;;;;;;;17.39;100.00;98286.47;15270525;19;20089;-54
2023/09/23 12:50:26;;;;;;;0.77;0.47;;;;;;;17.06;100.00;98298.16;15264860;19;20415;-55
2023/09/23 12:55:50;;;;;;;0.90;0.50;;;;;;;16.97;100.00;98307.56;15269429;19;20021;-54
2023/09/23 13:01:15;;;;;;;3.00;0.63;;;;;;;17.31;100.00;98301.09;15269727;19;20014;-54
2023/09/23 13:06:43;;;;;;;0.77;0.47;;;;;;;17.21;100.00;98315.16;15264107;19;20030;-55
2023/09/23 13:12:07;;;;;;;1.45;0.43;;;;;;;17.00;100.00;98320.72;15268215;19;20036;-55
2023/09/23 13:17:32;;;;;;;1.17;0.60;;;;;;;16.77;100.00;98324.63;15267314;19;20078;-55
2023/09/23 13:23:01;;;;;;;0.68;0.40;;;;;;;16.84;100.00;98324.63;15260030;19;20003;-55
2023/09/23 13:28:26;;;;;;;0.88;0.30;;;;;;;16.88;100.00;98326.75;15265000;19;20353;-54
2023/09/23 13:33:50;;;;;;;0.93;0.55;;;;;;;16.84;100.00;98338.25;15265839;19;20024;-56
2023/09/23 13:39:18;;;;;;;1.17;0.40;;;;;;;16.76;100.00;98347.41;15261958;19;20917;-55
2023/09/23 13:44:43;;;;;;;1.85;0.50;;;;;;;16.68;100.00;98348.47;15267208;19;20018;-55
2023/09/23 13:50:16;;;;;;;2.95;0.50;;;;;;;16.75;100.00;98357.47;15272076;19;20047;-55
2023/09/23 13:55:43;;;;;;;0.75;0.40;;;;;;;16.67;100.00;98354.09;15276421;19;20014;-56
2023/09/23 14:01:09;;;;;;;0.63;0.40;;;;;;;16.55;100.00;98357.38;15289439;19;20064;-53
2023/09/23 14:06:34;;;;;;;0.82;0.47;;;;;;;16.54;100.00;98372.00;15276572;19;20018;-53
2023/09/23 14:12:01;;;;;;;0.45;0.38;;;;;;;16.50;100.00;98376.19;15275689;19;20852;-54
2023/09/23 14:17:26;;;;;;;0.73;0.45;;;;;;;17.04;100.00;98384.59;15275289;19;20006;-55
2023/09/23 14:22:51;;;;;;;1.60;0.60;;;;;;;17.36;100.00;98393.06;15270860;19;20082;-55
2023/09/23 14:28:25;;;;;;;0.50;0.40;;;;;;;17.00;100.00;98395.06;15273913;19;20081;-56
2023/09/23 14:33:49;;;;;;;1.50;0.50;;;;;;;17.27;100.00;98399.75;15276076;19;20090;-56
2023/09/23 14:39:16;;;;;;;0.82;0.50;;;;;;;17.38;100.00;98401.88;15276006;19;20019;-56
2023/09/23 14:44:43;;;;;;;1.48;0.45;;;;;;;17.43;100.00;98418.44;15272485;19;20018;-54
2023/09/23 14:50:08;;;;;;;1.38;0.40;;;;;;;17.20;100.00;98435.97;15276971;19;20014;-56
2023/09/23 14:55:34;;;;;;;0.82;0.43;;;;;;;17.25;100.00;98432.63;15265490;19;20022;-54
2023/09/23 15:01:01;;;;;;;1.08;0.50;;;;;;;17.64;100.00;98439.22;15276689;19;20022;-53
2023/09/23 15:06:26;;;;;;;0.55;0.40;;;;;;;17.93;96.46;98437.16;15270181;19;20019;-55
2023/09/23 15:11:51;;;;;;;0.70;0.50;;;;;;;18.12;100.00;98441.00;15273319;19;20115;-56
2023/09/23 15:17:19;;;;;;;0.65;0.50;;;;;;;18.14;81.88;98452.53;15265598;19;20010;-55
2023/09/23 15:22:44;;;;;;;0.50;0.50;;;;;;;18.16;80.80;98463.22;15273144;19;20014;-55
2023/09/23 15:28:15;;;;;;;1.02;0.43;;;;;;;18.06;72.50;98466.34;15262023;19;20039;-55
2023/09/23 15:33:46;;;;;;;1.15;0.50;;;;;;;18.04;73.27;98471.19;15271569;19;20007;-56
2023/09/23 15:39:10;;;;;;;1.77;0.60;;;;;;;17.92;76.51;98473.66;15274947;19;20277;-56
2023/09/23 15:44:36;;;;;;;1.33;0.50;;;;;;;17.41;80.22;98469.56;15271623;19;20101;-56
2023/09/23 15:50:03;;;;;;;0.60;0.45;;;;;;;17.08;85.61;98487.44;15265616;19;20535;-55
2023/09/23 15:55:27;;;;;;;1.50;0.50;;;;;;;17.00;90.83;98500.34;15269906;19;20018;-56
2023/09/23 16:00:53;;;;;;;1.20;0.60;;;;;;;16.78;94.76;98492.25;15266325;19;20018;-57
2023/09/23 16:06:21;;;;;;;0.95;0.60;;;;;;;16.69;94.28;98502.47;15269261;19;20348;-57
2023/09/23 16:11:46;;;;;;;0.95;0.52;;;;;;;16.69;100.00;98509.78;15270484;19;20036;-57
2023/09/23 16:17:10;;;;;;;0.90;0.52;;;;;;;16.61;100.00;98514.34;15268334;19;20074;-54
2023/09/23 16:22:38;;;;;;;0.80;0.50;;;;;;;16.56;100.00;98527.69;15265071;19;20363;-55
2023/09/23 16:28:10;;;;;;;0.95;0.50;;;;;;;16.42;100.00;98525.88;15266053;19;20036;-55
2023/09/23 16:33:35;;;;;;;0.88;0.43;;;;;;;16.29;100.00;98530.16;15263614;19;20028;-56
2023/09/23 16:39:03;;;;;;;1.08;0.60;;;;;;;16.25;100.00;98545.22;15268817;19;20047;-55
2023/09/23 16:44:28;;;;;;;0.60;0.40;;;;;;;16.30;100.00;98548.16;15265749;19;20022;-54
2023/09/23 16:49:54;;;;;;;0.65;0.47;;;;;;;16.21;100.00;98549.34;15268080;19;20018;-54
2023/09/23 16:55:22;;;;;;;1.17;0.50;;;;;;;15.86;100.00;98557.34;15268457;19;20029;-55
2023/09/23 17:00:49;;;;;;;0.55;0.50;;;;;;;15.65;100.00;98553.53;15266287;19;20367;-55
2023/09/23 17:06:13;;;;;;;1.77;0.70;;;;;;;15.40;100.00;98547.59;15262553;19;20408;-57
2023/09/23 17:11:43;;;;;;;0.70;0.70;;;;;;;15.23;100.00;98547.78;15269225;19;20027;-54
2023/09/23 17:17:08;;;;;;;0.57;0.57;;;;;;;15.14;100.00;98557.06;15266290;19;20074;-57
2023/09/23 17:22:33;;;;;;;1.90;0.65;;;;;;;14.96;100.00;98571.00;15264681;19;20010;-52
2023/09/23 17:28:08;;;;;;;1.02;0.60;;;;;;;14.75;100.00;98567.16;15275388;19;20543;-55
2023/09/23 17:33:33;;;;;;;1.08;0.70;;;;;;;14.64;100.00;98573.00;15281794;19;20086;-52
2023/09/23 17:38:58;;;;;;;1.42;0.70;;;;;;;14.52;100.00;98590.72;15273132;19;20018;-55
2023/09/23 17:44:25;;;;;;;1.45;0.60;;;;;;;14.42;100.00;98596.41;15281394;19;20023;-56
2023/09/23 17:49:55;;;;;;;1.35;0.70;;;;;;;14.33;100.00;98595.59;15282351;19;20022;-57
2023/09/23 17:55:19;;;;;;;0.82;0.50;;;;;;;14.23;100.00;98595.00;15274733;19;20017;-52
2023/09/23 18:00:48;;;;;;;0.77;0.60;;;;;;;14.11;100.00;98600.84;15280655;19;20082;-53
2023/09/23 18:06:15;;;;;;;1.58;0.70;;;;;;;13.94;100.00;98608.25;15279217;19;20018;-57
2023/09/23 18:11:40;;;;;;;1.73;0.60;;;;;;;13.78;100.00;98611.88;15272033;19;20017;-54
2023/09/23 18:17:08;;;;;;;1.00;0.68;;;;;;;13.69;100.00;98629.19;15277529;19;20015;-52
2023/09/23 18:22:33;;;;;;;0.47;0.43;;;;;;;13.63;100.00;98640.72;15275505;19;20014;-56
2023/09/23 18:27:57;;;;;;;0.98;0.70;;;;;;;13.55;100.00;98653.28;15269664;19;20025;-54
2023/09/23 18:33:27;;;;;;;2.90;0.70;;;;;;;13.43;100.00;98662.78;15276477;19;20086;-51
2023/09/23 18:38:53;;;;;;;0.85;0.60;;;;;;;13.32;100.00;98682.91;15269361;19;20050;-53
2023/09/23 18:44:18;;;;;;;1.67;0.80;;;;;;;13.19;100.00;98698.81;15267346;19;20555;-51
2023/09/23 18:49:46;;;;;;;1.30;0.70;;;;;;;13.08;100.00;98702.75;15277815;19;20769;-51
2023/09/23 18:55:12;;;;;;;1.10;0.55;;;;;;;12.95;100.00;98716.75;15275197;19;20351;-50
2023/09/23 19:00:37;;;;;;;0.70;0.60;;;;;;;12.86;100.00;98715.94;15270985;19;20015;-52
2023/09/23 19:06:05;;;;;;;1.25;0.70;;;;;;;12.75;100.00;98724.38;15272397;19;20022;-56
2023/09/23 19:11:29;;;;;;;0.77;0.50;;;;;;;12.59;100.00;98736.84;15273306;19;20024;-54
2023/09/23 19:16:54;;;;;;;1.45;0.70;;;;;;;12.52;100.00;98741.25;15264419;19;20016;-53
2023/09/23 19:22:22;;;;;;;1.33;0.82;;;;;;;12.48;100.00;98751.50;15274365;19;20014;-51
2023/09/23 19:27:54;;;;;;;1.33;0.80;;;;;;;12.42;100.00;98751.31;15271997;19;20479;-54
2023/09/23 19:33:18;;;;;;;2.25;0.70;;;;;;;12.34;100.00;98754.88;15267569;19;20074;-53
2023/09/23 19:38:46;;;;;;;0.90;0.60;;;;;;;12.25;100.00;98778.31;15270005;19;20480;-58
2023/09/23 19:44:11;;;;;;;0.82;0.77;;;;;;;12.18;100.00;98782.66;15270949;19;20469;-52
2023/09/23 19:49:37;;;;;;;1.75;0.93;;;;;;;12.08;100.00;98781.94;15264400;19;20484;-55
2023/09/23 19:55:04;;;;;;;1.67;0.88;;;;;;;11.99;100.00;98799.97;15271448;19;20021;-55
2023/09/23 20:00:31;;;;;;;1.02;0.68;;;;;;;11.88;100.00;98815.41;15270465;19;20470;-56
2023/09/23 20:05:57;;;;;;;1.05;0.73;;;;;;;11.81;100.00;98810.81;15267692;19;20010;-53
2023/09/23 20:11:25;;;;;;;0.77;0.60;;;;;;;11.74;100.00;98812.44;15268492;19;20020;-55
2023/09/23 20:16:49;;;;;;;1.08;0.70;;;;;;;11.71;100.00;98821.72;15267764;19;20229;-56
2023/09/23 20:22:14;;;;;;;1.30;0.73;;;;;;;11.66;100.00;98822.19;15260967;19;20349;-54
2023/09/23 20:27:43;;;;;;;1.17;0.75;;;;;;;11.64;100.00;98826.91;15269402;19;20020;-56
2023/09/23 20:33:07;;;;;;;1.42;0.80;;;;;;;11.59;100.00;98831.06;15270641;19;20359;-55
2023/09/23 20:38:32;;;;;;;0.90;0.80;;;;;;;11.57;100.00;98839.34;15262575;19;20102;-55
2023/09/23 20:44:02;;;;;;;0.88;0.80;;;;;;;11.51;100.00;98850.75;15267254;19;20877;-56
2023/09/23 20:49:28;;;;;;;1.55;0.80;;;;;;;11.44;100.00;98853.22;15270161;19;20011;-55
2023/09/23 20:54:53;;;;;;;1.42;0.80;;;;;;;11.36;100.00;98863.97;15268222;19;20025;-55
2023/09/23 21:00:22;;;;;;;1.10;0.80;;;;;;;11.26;100.00;98858.63;15269875;19;20011;-54
2023/09/23 21:05:46;;;;;;;2.65;0.95;;;;;;;11.16;100.00;98865.97;15270006;19;20045;-57
2023/09/23 21:11:11;;;;;;;1.30;0.85;;;;;;;11.05;100.00;98875.16;15263470;19;20016;-54
2023/09/23 21:16:38;;;;;;;2.30;0.90;;;;;;;10.95;100.00;98883.28;15264281;19;20019;-55
2023/09/23 21:22:03;;;;;;;0.95;0.85;;;;;;;10.85;100.00;98893.28;15265956;19;20007;-56
2023/09/23 21:27:34;;;;;;;1.25;0.85;;;;;;;10.78;100.00;98898.44;15261532;19;20014;-58
2023/09/23 21:33:01;;;;;;;0.80;0.70;;;;;;;10.72;100.00;98894.50;15268189;19;20017;-52
2023/09/23 21:38:26;;;;;;;1.05;0.68;;;;;;;10.67;100.00;98912.94;15263325;19;20010;-56
2023/09/23 21:43:52;;;;;;;2.30;0.90;;;;;;;10.62;100.00;98915.25;15261057;19;20476;-55
2023/09/23 21:49:19;;;;;;;1.05;0.75;;;;;;;10.56;100.00;98916.72;15266192;19;20018;-56
2023/09/23 21:54:44;;;;;;;1.98;0.90;;;;;;;10.52;100.00;98930.63;15256659;19;20015;-55
2023/09/23 22:00:25;;;;;;;1.20;0.80;;;;;;;10.46;100.00;98938.28;15261663;19;20018;-56
2023/09/23 22:05:53;;;;;;;1.95;0.82;;;;;;;10.40;100.00;98944.28;15265320;19;20035;-55
2023/09/23 22:11:18;;;;;;;3.47;0.88;;;;;;;10.38;100.00;98940.03;15262270;19;20019;-57
2023/09/23 22:16:42;;;;;;;1.33;0.80;;;;;;;10.36;100.00;98945.53;15264072;19;20356;-54
2023/09/23 22:22:16;;;;;;;0.98;0.80;;;;;;;10.34;100.00;98952.91;15270028;19;20017;-53
2023/09/23 22:27:48;;;;;;;1.58;0.82;;;;;;;10.29;100.00;98956.03;15271690;19;20021;-56
2023/09/23 22:33:12;;;;;;;1.63;0.80;;;;;;;10.28;100.00;98962.41;15282778;19;20018;-56
2023/09/23 22:38:44;;;;;;;1.27;0.80;;;;;;;10.24;100.00;98960.16;15278028;19;20062;-56
2023/09/23 22:44:09;;;;;;;1.92;0.80;;;;;;;10.16;100.00;98961.75;15278957;19;20094;-55
2023/09/23 22:49:34;;;;;;;2.63;0.80;;;;;;;10.10;100.00;98965.00;15274849;19;20026;-55
2023/09/23 22:55:03;;;;;;;0.85;0.70;;;;;;;10.06;100.00;98968.97;15275565;19;20011;-56
2023/09/23 23:00:32;;;;;;;1.48;0.98;;;;;;;10.01;100.00;98966.72;15265858;19;20017;-55
2023/09/23 23:05:57;;;;;;;0.80;0.80;;;;;;;9.98;100.00;98968.84;15276698;19;20020;-52
2023/09/23 23:11:24;;;;;;;0.85;0.80;;;;;;;9.94;100.00;98972.81;15278370;19;20025;-56
2023/09/23 23:16:48;;;;;;;2.75;0.90;;;;;;;9.88;100.00;98976.94;15275500;19;20372;-54
2023/09/23 23:22:13;;;;;;;1.83;1.00;;;;;;;9.79;100.00;98970.59;15269512;19;20431;-56
2023/09/23 23:27:49;;;;;;;1.65;0.85;;;;;;;9.73;100.00;98976.53;15273069;19;20022;-55
2023/09/23 23:33:14;;;;;;;3.10;0.90;;;;;;;9.64;100.00;98980.06;15271008;19;20484;-52
2023/09/23 23:38:39;;;;;;;2.22;1.00;;;;;;;9.56;100.00;98989.72;15273377;19;20014;-56
2023/09/23 23:44:08;;;;;;;1.25;0.88;;;;;;;9.48;100.00;98983.34;15276891;19;20475;-54
2023/09/23 23:49:33;;;;;;;2.65;1.00;;;;;;;9.42;100.00;98992.81;15274419;19;20901;-52
2023/09/23 23:54:58;;;;;;;3.00;1.13;;;;;;;9.40;100.00;99002.84;15272881;19;20496;-52
